createdAt,value
2023-02-02T00:00:47.044Z,102400.66
2023-02-02T00:02:49.089Z,102395.66
2023-02-02T00:04:51.092Z,102397.13
2023-02-02T00:06:54.369Z,102396.06
2023-02-02T00:08:58.146Z,102397.47
2023-02-02T00:11:00.101Z,102396.53
2023-02-02T00:13:02.095Z,102403.13
2023-02-02T00:15:04.502Z,102408.16
2023-02-02T00:17:11.094Z,102408.31
2023-02-02T00:19:17.112Z,102407.91
2023-02-02T00:21:19.129Z,102417.13
2023-02-02T00:23:21.194Z,102411.56
2023-02-02T00:25:23.673Z,102415.81
2023-02-02T00:27:25.940Z,102404.91
2023-02-02T00:29:30.622Z,102433.16
2023-02-02T00:31:32.758Z,102418.63
2023-02-02T00:33:34.939Z,102406.41
2023-02-02T00:35:40.087Z,102404.34
2023-02-02T00:37:42.559Z,102416.69
2023-02-02T00:39:44.521Z,102412.63
2023-02-02T00:41:46.908Z,102414.75
2023-02-02T00:44:08.760Z,102408.56
2023-02-02T00:46:17.155Z,102397.88
2023-02-02T00:48:19.114Z,102402.94
2023-02-02T00:50:21.662Z,102400.94
2023-02-02T00:52:23.654Z,102397.13
2023-02-02T00:54:25.561Z,102388.91
2023-02-02T00:56:27.682Z,102393.19
2023-02-02T00:58:29.568Z,102415.28
2023-02-02T01:00:31.437Z,102395.75
2023-02-02T01:02:35.504Z,102395.81
2023-02-02T01:04:37.499Z,102396.81
2023-02-02T01:06:39.467Z,102394.06
2023-02-02T01:08:41.369Z,102389.94
2023-02-02T01:10:43.233Z,102387.94
2023-02-02T01:12:45.663Z,102382.66
2023-02-02T01:14:47.658Z,102386.50
2023-02-02T01:16:49.589Z,102376.94
2023-02-02T01:18:52.394Z,102373.91
2023-02-02T01:21:00.681Z,102385.22
2023-02-02T01:23:02.679Z,102383.47
2023-02-02T01:25:05.768Z,102382.91
2023-02-02T01:27:07.788Z,102386.69
2023-02-02T01:29:09.749Z,102388.59
2023-02-02T01:31:14.676Z,102388.75
2023-02-02T01:33:17.820Z,102396.19
2023-02-02T01:35:19.775Z,102390.16
2023-02-02T01:37:22.384Z,102391.47
2023-02-02T01:39:24.971Z,102393.75
2023-02-02T01:41:29.054Z,102389.41
2023-02-02T01:43:40.541Z,102395.22
2023-02-02T01:45:42.540Z,102393.59
2023-02-02T01:47:50.628Z,102386.53
2023-02-02T01:49:55.097Z,102381.84
2023-02-02T01:52:00.215Z,102380.28
2023-02-02T01:54:03.394Z,102380.59
2023-02-02T01:56:07.209Z,102382.41
2023-02-02T01:58:14.789Z,102385.09
2023-02-02T02:00:18.967Z,102390.25
2023-02-02T02:02:21.383Z,102388.91
2023-02-02T02:04:26.533Z,102386.78
2023-02-02T02:06:29.231Z,102401.06
2023-02-02T02:08:35.968Z,102398.25
2023-02-02T02:10:37.970Z,102395.38
2023-02-02T02:12:39.956Z,102389.56
2023-02-02T02:14:47.226Z,102395.47
2023-02-02T02:16:53.675Z,102395.66
2023-02-02T02:19:04.907Z,102405.13
2023-02-02T02:21:16.115Z,102403.97
2023-02-02T02:23:27.298Z,102403.56
2023-02-02T02:25:45.911Z,102404.53
2023-02-02T02:27:52.432Z,102391.69
2023-02-02T02:30:06.138Z,102402.63
2023-02-02T02:32:12.527Z,102396.72
2023-02-02T02:34:20.952Z,102401.00
2023-02-02T02:36:29.212Z,102394.66
2023-02-02T02:38:41.153Z,102396.72
2023-02-02T02:40:49.981Z,102400.25
2023-02-02T02:42:59.547Z,102404.09
2023-02-02T02:45:04.163Z,102396.81
2023-02-02T02:47:06.466Z,102400.94
2023-02-02T02:49:11.251Z,102400.78
2023-02-02T02:51:19.476Z,102399.72
2023-02-02T02:53:23.847Z,102399.31
2023-02-02T02:55:33.961Z,102391.84
2023-02-02T02:57:40.392Z,102393.88
2023-02-02T02:59:48.515Z,102388.81
2023-02-02T03:01:59.852Z,102393.06
2023-02-02T03:04:12.856Z,102385.66
2023-02-02T03:06:21.139Z,102381.84
2023-02-02T03:08:29.343Z,102389.44
2023-02-02T03:10:32.943Z,102385.13
2023-02-02T03:12:43.224Z,102383.13
2023-02-02T03:14:45.205Z,102392.19
2023-02-02T03:16:47.287Z,102394.03
2023-02-02T03:18:49.254Z,102402.34
2023-02-02T03:20:51.209Z,102397.69
2023-02-02T03:22:53.151Z,102400.53
2023-02-02T03:24:55.156Z,102405.13
2023-02-02T03:26:57.319Z,102395.88
2023-02-02T03:29:00.620Z,102392.56
2023-02-02T03:31:02.965Z,102412.97
2023-02-02T03:33:06.185Z,102399.31
2023-02-02T03:35:09.466Z,102396.44
2023-02-02T03:37:11.414Z,102396.28
2023-02-02T03:39:13.433Z,102400.94
2023-02-02T03:41:15.397Z,102393.72
2023-02-02T03:43:22.585Z,102399.56
2023-02-02T03:45:27.899Z,102399.75
2023-02-02T03:47:30.445Z,102398.53
2023-02-02T03:49:32.433Z,102403.81
2023-02-02T03:51:34.325Z,102400.13
2023-02-02T03:53:36.281Z,102400.47
2023-02-02T03:55:40.647Z,102398.88
2023-02-02T03:57:42.647Z,102401.19
2023-02-02T03:59:44.689Z,102407.19
2023-02-02T04:01:46.653Z,102396.94
2023-02-02T04:03:50.593Z,102395.09
2023-02-02T04:05:52.491Z,102402.63
2023-02-02T04:07:54.443Z,102409.06
2023-02-02T04:09:56.404Z,102409.66
2023-02-02T04:11:58.389Z,102408.31
2023-02-02T04:14:00.316Z,102409.13
2023-02-02T04:16:02.409Z,102400.63
2023-02-02T04:18:04.490Z,102410.16
2023-02-02T04:20:07.262Z,102411.53
2023-02-02T04:22:09.273Z,102408.66
2023-02-02T04:24:12.647Z,102411.47
2023-02-02T04:26:14.534Z,102409.28
2023-02-02T04:28:16.592Z,102417.00
2023-02-02T04:30:20.127Z,102425.56
2023-02-02T04:32:22.062Z,102420.97
2023-02-02T04:34:24.024Z,102423.38
2023-02-02T04:36:26.045Z,102430.72
2023-02-02T04:38:28.292Z,102422.75
2023-02-02T04:40:30.195Z,102415.59
2023-02-02T04:42:32.918Z,102412.97
2023-02-02T04:44:35.232Z,102410.41
2023-02-02T04:46:37.164Z,102402.97
2023-02-02T04:48:41.078Z,102399.66
2023-02-02T04:50:43.024Z,102396.75
2023-02-02T04:52:45.026Z,102395.00
2023-02-02T04:54:47.044Z,102398.81
2023-02-02T04:56:49.052Z,102397.25
2023-02-02T04:58:54.242Z,102409.38
2023-02-02T05:00:56.293Z,102396.19
2023-02-02T05:02:58.266Z,102397.06
2023-02-02T05:05:00.259Z,102399.59
2023-02-02T05:07:02.240Z,102401.66
2023-02-02T05:09:04.251Z,102404.72
2023-02-02T05:11:08.292Z,102413.78
2023-02-02T05:13:10.272Z,102412.81
2023-02-02T05:15:12.251Z,102418.34
2023-02-02T05:17:14.262Z,102412.25
2023-02-02T05:19:17.105Z,102418.75
2023-02-02T05:21:19.409Z,102417.59
2023-02-02T05:23:21.588Z,102418.19
2023-02-02T05:25:23.887Z,102423.75
2023-02-02T05:27:26.047Z,102412.66
2023-02-02T05:29:28.867Z,102409.28
2023-02-02T05:31:32.251Z,102415.22
2023-02-02T05:33:34.318Z,102409.38
2023-02-02T05:35:36.247Z,102413.03
2023-02-02T05:37:38.198Z,102408.94
2023-02-02T05:39:40.139Z,102413.69
2023-02-02T05:41:42.311Z,102411.06
2023-02-02T05:43:44.229Z,102417.06
2023-02-02T05:45:46.402Z,102410.66
2023-02-02T05:47:48.547Z,102412.44
2023-02-02T05:49:50.512Z,102414.28
2023-02-02T05:51:55.467Z,102413.22
2023-02-02T05:53:59.939Z,102422.81
2023-02-02T05:56:02.987Z,102421.53
2023-02-02T05:58:04.951Z,102421.47
2023-02-02T06:00:07.899Z,102426.97
2023-02-02T06:02:09.823Z,102427.47
2023-02-02T06:04:11.960Z,102433.88
2023-02-02T06:06:14.042Z,102431.50
2023-02-02T06:08:16.323Z,102432.31
2023-02-02T06:10:18.359Z,102432.63
2023-02-02T06:12:20.330Z,102424.69
2023-02-02T06:14:22.354Z,102428.56
2023-02-02T06:16:24.711Z,102433.47
2023-02-02T06:18:26.701Z,102430.03
2023-02-02T06:20:28.688Z,102431.22
2023-02-02T06:22:32.481Z,102432.91
2023-02-02T06:24:34.414Z,102430.63
2023-02-02T06:26:36.962Z,102428.69
2023-02-02T06:28:38.970Z,102431.88
2023-02-02T06:30:43.166Z,102434.72
2023-02-02T06:32:46.047Z,102432.69
2023-02-02T06:34:47.989Z,102437.00
2023-02-02T06:36:49.915Z,102444.47
2023-02-02T06:38:53.510Z,102440.38
2023-02-02T06:40:55.566Z,102445.06
2023-02-02T06:42:59.228Z,102442.94
2023-02-02T06:45:01.134Z,102445.91
2023-02-02T06:47:03.088Z,102452.28
2023-02-02T06:49:05.038Z,102451.91
2023-02-02T06:51:07.523Z,102444.63
2023-02-02T06:53:09.539Z,102446.59
2023-02-02T06:55:11.704Z,102454.97
2023-02-02T06:57:13.689Z,102453.75
2023-02-02T06:59:15.646Z,102459.69
2023-02-02T07:01:17.753Z,102453.84
2023-02-02T07:03:21.599Z,102454.66
2023-02-02T07:05:25.249Z,102457.72
2023-02-02T07:07:27.683Z,102451.44
2023-02-02T07:09:33.672Z,102455.53
2023-02-02T07:11:38.437Z,102451.34
2023-02-02T07:13:42.993Z,102452.88
2023-02-02T07:15:44.979Z,102453.47
2023-02-02T07:17:46.927Z,102454.19
2023-02-02T07:19:48.890Z,102452.44
2023-02-02T07:21:50.876Z,102460.56
2023-02-02T07:23:52.883Z,102450.63
2023-02-02T07:26:01.063Z,102451.91
2023-02-02T07:28:03.173Z,102455.34
2023-02-02T07:30:05.895Z,102457.81
2023-02-02T07:32:07.843Z,102458.59
2023-02-02T07:34:09.806Z,102465.19
2023-02-02T07:36:13.653Z,102458.19
2023-02-02T07:38:16.020Z,102459.16
2023-02-02T07:40:18.490Z,102453.94
2023-02-02T07:42:20.620Z,102463.56
2023-02-02T07:44:23.440Z,102456.84
2023-02-02T07:46:25.762Z,102470.63
2023-02-02T07:48:27.859Z,102480.91
2023-02-02T07:50:31.128Z,102480.53
2023-02-02T07:52:33.223Z,102474.97
2023-02-02T07:54:35.531Z,102482.88
2023-02-02T07:56:38.506Z,102475.22
2023-02-02T07:58:40.835Z,102485.69
2023-02-02T08:00:42.926Z,102472.22
2023-02-02T08:02:44.976Z,102476.63
2023-02-02T08:04:47.885Z,102480.19
2023-02-02T08:06:49.916Z,102475.22
2023-02-02T08:08:52.037Z,102488.84
2023-02-02T08:10:54.798Z,102483.19
2023-02-02T08:12:56.861Z,102490.22
2023-02-02T08:14:59.284Z,102492.84
2023-02-02T08:17:01.325Z,102495.84
2023-02-02T08:19:04.034Z,102492.31
2023-02-02T08:21:09.582Z,102500.72
2023-02-02T08:23:16.042Z,102506.56
2023-02-02T08:25:18.089Z,102504.44
2023-02-02T08:27:20.200Z,102505.66
2023-02-02T08:29:22.675Z,102514.31
2023-02-02T08:31:29.576Z,102511.81
2023-02-02T08:33:31.683Z,102514.97
2023-02-02T08:35:33.901Z,102525.94
2023-02-02T08:37:35.978Z,102520.28
2023-02-02T08:39:38.090Z,102519.47
2023-02-02T08:41:40.580Z,102521.09
2023-02-02T08:43:43.540Z,102528.78
2023-02-02T08:46:01.811Z,102523.00
2023-02-02T08:48:11.986Z,102524.78
2023-02-02T08:50:14.947Z,102521.41
2023-02-02T08:52:17.088Z,102522.47
2023-02-02T08:54:19.250Z,102523.63
2023-02-02T08:56:23.654Z,102516.25
2023-02-02T08:58:26.026Z,102522.09
2023-02-02T09:00:28.206Z,102522.28
2023-02-02T09:02:30.449Z,102521.63
2023-02-02T09:04:32.486Z,102516.84
2023-02-02T09:06:37.164Z,102520.69
2023-02-02T09:08:39.361Z,102524.50
2023-02-02T09:10:41.660Z,102523.25
2023-02-02T09:12:43.679Z,102530.22
2023-02-02T09:14:45.948Z,102518.97
2023-02-02T09:16:48.098Z,102521.09
2023-02-02T09:18:50.573Z,102536.97
2023-02-02T09:20:52.618Z,102529.41
2023-02-02T09:22:57.335Z,102539.03
2023-02-02T09:24:59.463Z,102539.19
2023-02-02T09:27:01.613Z,102542.75
2023-02-02T09:29:06.346Z,102533.91
2023-02-02T09:31:09.264Z,102535.28
2023-02-02T09:33:11.411Z,102536.16
2023-02-02T09:35:13.640Z,102532.06
2023-02-02T09:37:17.208Z,102533.13
2023-02-02T09:39:20.658Z,102535.78
2023-02-02T09:41:28.941Z,102540.19
2023-02-02T09:43:41.535Z,102541.34
2023-02-02T09:45:49.778Z,102539.38
2023-02-02T09:47:55.876Z,102535.69
2023-02-02T09:50:02.353Z,102551.38
2023-02-02T09:52:22.296Z,102547.44
2023-02-02T09:54:33.431Z,102556.91
2023-02-02T09:56:41.960Z,102555.47
2023-02-02T09:58:51.295Z,102559.81
2023-02-02T10:00:55.105Z,102557.03
2023-02-02T10:03:04.720Z,102558.53
2023-02-02T10:05:16.682Z,102554.59
2023-02-02T10:07:24.942Z,102560.38
2023-02-02T10:09:31.509Z,102555.16
2023-02-02T10:11:37.285Z,102557.34
2023-02-02T10:13:43.790Z,102547.94
2023-02-02T10:15:56.586Z,102551.78
2023-02-02T10:18:06.198Z,102551.31
2023-02-02T10:20:18.961Z,102554.50
2023-02-02T10:22:27.813Z,102547.03
2023-02-02T10:24:32.152Z,102546.47
2023-02-02T10:26:39.405Z,102561.56
2023-02-02T10:28:46.049Z,102565.56
2023-02-02T10:30:59.935Z,102560.50
2023-02-02T10:33:06.217Z,102570.63
2023-02-02T10:35:20.924Z,102571.59
2023-02-02T10:37:23.994Z,102570.78
2023-02-02T10:39:32.477Z,102578.06
2023-02-02T10:41:46.022Z,102580.81
2023-02-02T10:43:49.929Z,102577.06
2023-02-02T10:45:52.453Z,102584.75
2023-02-02T10:47:54.783Z,102585.00
2023-02-02T10:50:05.331Z,102576.97
2023-02-02T10:52:11.981Z,102587.78
2023-02-02T10:54:20.224Z,102578.84
2023-02-02T10:56:31.813Z,102577.88
2023-02-02T10:58:41.482Z,102573.31
2023-02-02T11:00:47.351Z,102575.06
2023-02-02T11:02:50.862Z,102568.47
2023-02-02T11:04:56.063Z,102571.22
2023-02-02T11:07:01.158Z,102568.09
2023-02-02T11:09:05.298Z,102565.88
2023-02-02T11:11:13.542Z,102572.00
2023-02-02T11:13:23.884Z,102562.94
2023-02-02T11:15:30.444Z,102560.66
2023-02-02T11:17:33.720Z,102566.78
2023-02-02T11:19:35.987Z,102560.00
2023-02-02T11:21:38.549Z,102557.19
2023-02-02T11:23:41.067Z,102562.66
2023-02-02T11:25:43.471Z,102557.63
2023-02-02T11:27:46.968Z,102566.47
2023-02-02T11:29:53.623Z,102558.25
2023-02-02T11:31:56.092Z,102554.03
2023-02-02T11:34:09.545Z,102553.44
2023-02-02T11:36:22.112Z,102557.03
2023-02-02T11:38:24.705Z,102545.00
2023-02-02T11:40:28.909Z,102537.50
2023-02-02T11:42:31.202Z,102535.41
2023-02-02T11:44:35.944Z,102533.91
2023-02-02T11:46:38.969Z,102531.69
2023-02-02T11:48:50.372Z,102547.38
2023-02-02T11:50:55.151Z,102535.03
2023-02-02T11:52:58.241Z,102531.78
2023-02-02T11:55:03.021Z,102532.31
2023-02-02T11:57:09.703Z,102529.69
2023-02-02T11:59:22.743Z,102525.81
2023-02-02T12:01:27.817Z,102523.59
2023-02-02T12:03:36.058Z,102529.00
2023-02-02T12:05:38.624Z,102528.88
2023-02-02T12:07:43.105Z,102516.22
2023-02-02T12:09:45.385Z,102514.63
2023-02-02T12:11:54.041Z,102512.63
2023-02-02T12:13:59.217Z,102522.47
2023-02-02T12:16:03.256Z,102512.44
2023-02-02T12:18:10.009Z,102508.63
2023-02-02T12:20:15.840Z,102522.81
2023-02-02T12:22:24.243Z,102509.38
2023-02-02T12:24:32.781Z,102491.38
2023-02-02T12:26:37.458Z,102502.41
2023-02-02T12:28:41.533Z,102487.34
2023-02-02T12:30:50.154Z,102486.50
2023-02-02T12:32:58.446Z,102481.06
2023-02-02T12:35:11.408Z,102486.22
2023-02-02T12:37:19.879Z,102490.97
2023-02-02T12:39:34.562Z,102493.97
2023-02-02T12:41:47.962Z,102476.38
2023-02-02T12:43:56.058Z,102476.09
2023-02-02T12:46:06.499Z,102472.34
2023-02-02T12:48:11.797Z,102472.09
2023-02-02T12:50:21.352Z,102478.47
2023-02-02T12:52:26.913Z,102480.38
2023-02-02T12:54:40.772Z,102479.44
2023-02-02T12:56:52.804Z,102476.69
2023-02-02T12:58:59.479Z,102476.03
2023-02-02T13:01:07.917Z,102476.56
2023-02-02T13:03:13.504Z,102481.50
2023-02-02T13:05:20.250Z,102470.69
2023-02-02T13:07:28.750Z,102474.19
2023-02-02T13:09:39.342Z,102480.81
2023-02-02T13:11:50.835Z,102466.63
2023-02-02T13:13:52.977Z,102458.28
2023-02-02T13:16:00.441Z,102461.84
2023-02-02T13:18:10.999Z,102469.53
2023-02-02T13:20:19.481Z,102475.09
2023-02-02T13:22:28.888Z,102464.09
2023-02-02T13:24:35.065Z,102465.66
2023-02-02T13:26:41.272Z,102472.72
2023-02-02T13:28:49.670Z,102467.50
2023-02-02T13:30:53.689Z,102466.47
2023-02-02T13:33:01.228Z,102461.19
2023-02-02T13:35:04.559Z,102494.38
2023-02-02T13:37:17.232Z,102485.00
2023-02-02T13:39:25.643Z,102468.16
2023-02-02T13:41:29.555Z,102460.16
2023-02-02T13:43:39.799Z,102464.31
2023-02-02T13:45:46.449Z,102469.59
2023-02-02T13:48:01.706Z,102473.97
2023-02-02T13:50:12.702Z,102470.41
2023-02-02T13:52:18.441Z,102462.75
2023-02-02T13:54:26.921Z,102468.38
2023-02-02T13:56:37.945Z,102459.22
2023-02-02T13:58:46.516Z,102463.00
2023-02-02T14:00:56.116Z,102464.00
2023-02-02T14:03:04.195Z,102481.88
2023-02-02T14:05:07.828Z,102471.84
2023-02-02T14:07:10.871Z,102481.63
2023-02-02T14:09:19.046Z,102469.22
2023-02-02T14:11:26.878Z,102473.69
2023-02-02T14:13:41.668Z,102473.13
2023-02-02T14:15:45.116Z,102467.28
2023-02-02T14:17:47.965Z,102467.16
2023-02-02T14:19:56.380Z,102470.28
2023-02-02T14:22:05.250Z,102462.88
2023-02-02T14:24:13.595Z,102456.09
2023-02-02T14:26:20.489Z,102459.72
2023-02-02T14:28:29.099Z,102457.59
2023-02-02T14:30:35.012Z,102460.84
2023-02-02T14:32:43.228Z,102466.81
2023-02-02T14:34:45.683Z,102463.66
2023-02-02T14:36:57.073Z,102451.69
2023-02-02T14:39:08.323Z,102457.84
2023-02-02T14:41:43.224Z,102454.34
2023-02-02T14:43:51.229Z,102475.16
2023-02-02T14:45:59.671Z,102455.53
2023-02-02T14:48:11.487Z,102453.13
2023-02-02T14:50:19.944Z,102465.72
2023-02-02T14:52:24.132Z,102461.94
2023-02-02T14:54:32.038Z,102463.44
2023-02-02T14:56:40.595Z,102463.00
2023-02-02T14:58:46.555Z,102456.16
2023-02-02T15:00:59.324Z,102451.63
2023-02-02T15:03:08.487Z,102458.56
2023-02-02T15:05:22.721Z,102456.78
2023-02-02T15:07:25.939Z,102470.88
2023-02-02T15:09:37.145Z,102479.66
2023-02-02T15:11:51.052Z,102465.44
2023-02-02T15:13:59.499Z,102463.97
2023-02-02T15:16:14.252Z,102472.41
2023-02-02T15:18:25.793Z,102470.56
2023-02-02T15:20:28.983Z,102474.47
2023-02-02T15:22:38.244Z,102488.53
2023-02-02T15:24:41.045Z,102476.78
2023-02-02T15:26:45.733Z,102479.00
2023-02-02T15:28:55.183Z,102465.19
2023-02-02T15:31:04.118Z,102477.63
2023-02-02T15:33:27.570Z,102471.50
2023-02-02T15:35:32.448Z,102482.78
2023-02-02T15:37:40.687Z,102485.97
2023-02-02T15:39:49.281Z,102499.91
2023-02-02T15:42:15.302Z,102497.84
2023-02-02T15:44:21.120Z,102505.91
2023-02-02T15:46:28.124Z,102491.50
2023-02-02T15:48:32.701Z,102493.28
2023-02-02T15:50:35.349Z,102498.59
2023-02-02T15:52:47.549Z,102498.59
2023-02-02T15:54:53.020Z,102516.03
2023-02-02T15:56:57.153Z,102508.91
2023-02-02T15:59:00.804Z,102508.09
2023-02-02T16:01:06.959Z,102506.53
2023-02-02T16:03:18.648Z,102508.91
2023-02-02T16:05:26.064Z,102507.28
2023-02-02T16:07:32.458Z,102505.06
2023-02-02T16:09:37.099Z,102501.53
2023-02-02T16:11:42.739Z,102496.06
2023-02-02T16:13:54.639Z,102520.19
2023-02-02T16:16:00.462Z,102516.34
2023-02-02T16:18:08.089Z,102505.38
2023-02-02T16:20:14.870Z,102507.56
2023-02-02T16:22:21.565Z,102503.91
2023-02-02T16:24:30.025Z,102507.19
2023-02-02T16:26:35.176Z,102514.50
2023-02-02T16:28:37.561Z,102501.59
2023-02-02T16:30:40.257Z,102507.56
2023-02-02T16:32:44.375Z,102513.75
2023-02-02T16:34:47.336Z,102496.22
2023-02-02T16:36:55.991Z,102500.34
2023-02-02T16:39:01.216Z,102504.78
2023-02-02T16:41:06.339Z,102504.03
2023-02-02T16:43:14.607Z,102503.75
2023-02-02T16:45:23.276Z,102499.78
2023-02-02T16:47:26.355Z,102509.19
2023-02-02T16:49:30.175Z,102533.31
2023-02-02T16:51:34.124Z,102510.81
2023-02-02T16:53:37.381Z,102525.13
2023-02-02T16:55:50.570Z,102524.38
2023-02-02T16:57:53.778Z,102520.84
2023-02-02T17:00:00.516Z,102514.44
2023-02-02T17:02:20.332Z,102525.25
2023-02-02T17:04:27.153Z,102519.66
2023-02-02T17:06:50.154Z,102526.91
2023-02-02T17:08:54.224Z,102520.66
2023-02-02T17:11:02.953Z,102520.66
2023-02-02T17:13:27.961Z,102510.41
2023-02-02T17:15:34.818Z,102521.19
2023-02-02T17:17:37.679Z,102511.22
2023-02-02T17:19:39.860Z,102519.09
2023-02-02T17:21:42.552Z,102521.34
2023-02-02T17:23:45.220Z,102517.19
2023-02-02T17:25:48.203Z,102514.44
2023-02-02T17:27:50.501Z,102507.97
2023-02-02T17:29:54.024Z,102511.97
2023-02-02T17:31:57.090Z,102526.13
2023-02-02T17:33:59.309Z,102512.56
2023-02-02T17:36:01.968Z,102508.78
2023-02-02T17:38:04.310Z,102504.50
2023-02-02T17:40:07.506Z,102509.19
2023-02-02T17:42:20.683Z,102516.03
2023-02-02T17:44:23.092Z,102513.63
2023-02-02T17:46:28.680Z,102510.97
2023-02-02T17:48:30.998Z,102510.66
2023-02-02T17:50:36.726Z,102528.88
2023-02-02T17:52:39.478Z,102521.88
2023-02-02T17:54:41.898Z,102514.88
2023-02-02T17:56:44.562Z,102530.13
2023-02-02T17:58:47.024Z,102508.91
2023-02-02T18:00:54.237Z,102506.44
2023-02-02T18:03:02.400Z,102502.16
2023-02-02T18:05:06.177Z,102502.09
2023-02-02T18:07:09.766Z,102502.09
2023-02-02T18:09:12.132Z,102509.84
2023-02-02T18:11:15.378Z,102498.81
2023-02-02T18:13:20.264Z,102507.19
2023-02-02T18:15:23.111Z,102511.19
2023-02-02T18:17:25.843Z,102514.59
2023-02-02T18:19:28.191Z,102510.66
2023-02-02T18:21:32.096Z,102512.66
2023-02-02T18:23:34.333Z,102515.88
2023-02-02T18:25:37.951Z,102513.13
2023-02-02T18:27:40.177Z,102523.41
2023-02-02T18:29:43.024Z,102527.34
2023-02-02T18:31:45.346Z,102517.53
2023-02-02T18:33:48.187Z,102512.25
2023-02-02T18:35:50.671Z,102511.94
2023-02-02T18:37:52.879Z,102525.31
2023-02-02T18:39:55.097Z,102517.22
2023-02-02T18:41:57.718Z,102546.91
2023-02-02T18:43:59.946Z,102525.19
2023-02-02T18:46:04.909Z,102516.34
2023-02-02T18:48:07.396Z,102527.69
2023-02-02T18:50:10.555Z,102526.53
2023-02-02T18:52:12.843Z,102549.63
2023-02-02T18:54:15.273Z,102508.47
2023-02-02T18:56:18.150Z,102514.03
2023-02-02T18:58:20.800Z,102513.66
2023-02-02T19:00:23.326Z,102509.78
2023-02-02T19:02:26.324Z,102517.31
2023-02-02T19:04:28.509Z,102524.97
2023-02-02T19:06:33.717Z,102513.94
2023-02-02T19:08:36.041Z,102514.56
2023-02-02T19:10:38.061Z,102525.69
2023-02-02T19:12:40.318Z,102511.59
2023-02-02T19:14:43.472Z,102516.06
2023-02-02T19:16:47.738Z,102510.34
2023-02-02T19:18:50.259Z,102520.72
2023-02-02T19:20:52.807Z,102513.78
2023-02-02T19:23:01.023Z,102513.31
2023-02-02T19:25:13.910Z,102514.47
2023-02-02T19:27:20.550Z,102515.16
2023-02-02T19:29:25.189Z,102506.84
2023-02-02T19:31:28.267Z,102502.75
2023-02-02T19:33:39.620Z,102525.16
2023-02-02T19:35:46.709Z,102509.03
2023-02-02T19:37:50.345Z,102528.91
2023-02-02T19:40:07.496Z,102513.53
2023-02-02T19:42:12.106Z,102515.28
2023-02-02T19:44:18.866Z,102535.47
2023-02-02T19:46:24.218Z,102528.66
2023-02-02T19:48:31.524Z,102513.38
2023-02-02T19:50:41.361Z,102516.66
2023-02-02T19:52:43.398Z,102514.56
2023-02-02T19:54:49.139Z,102514.81
2023-02-02T19:56:54.327Z,102535.09
2023-02-02T19:58:56.405Z,102534.50
2023-02-02T20:00:59.441Z,102535.81
2023-02-02T20:03:06.949Z,102527.06
2023-02-02T20:05:12.709Z,102544.22
2023-02-02T20:07:15.362Z,102575.03
2023-02-02T20:09:19.861Z,102554.03
2023-02-02T20:11:32.366Z,102559.59
2023-02-02T20:13:39.519Z,102557.44
2023-02-02T20:15:41.900Z,102573.09
2023-02-02T20:17:43.963Z,102588.13
2023-02-02T20:19:47.247Z,102590.66
2023-02-02T20:21:51.517Z,102582.38
2023-02-02T20:23:53.704Z,102593.88
2023-02-02T20:25:56.051Z,102602.44
2023-02-02T20:27:59.824Z,102594.16
2023-02-02T20:30:18.960Z,102601.88
2023-02-02T20:32:26.759Z,102607.41
2023-02-02T20:34:33.322Z,102598.09
2023-02-02T20:36:39.303Z,102605.84
2023-02-02T20:38:41.367Z,102608.31
2023-02-02T20:40:43.351Z,102602.69
2023-02-02T20:42:46.606Z,102594.69
2023-02-02T20:44:49.228Z,102595.34
2023-02-02T20:46:51.362Z,102585.34
2023-02-02T20:48:53.385Z,102595.66
2023-02-02T20:50:55.442Z,102585.97
2023-02-02T20:52:59.846Z,102584.59
2023-02-02T20:55:01.936Z,102585.59
2023-02-02T20:57:04.613Z,102580.53
2023-02-02T20:59:07.500Z,102588.31
2023-02-02T21:01:09.718Z,102582.91
2023-02-02T21:03:13.411Z,102589.88
2023-02-02T21:05:15.772Z,102601.13
2023-02-02T21:07:19.970Z,102583.59
2023-02-02T21:09:22.206Z,102581.19
2023-02-02T21:11:24.519Z,102590.13
2023-02-02T21:13:26.599Z,102574.03
2023-02-02T21:15:29.137Z,102573.84
2023-02-02T21:17:31.269Z,102576.41
2023-02-02T21:19:33.514Z,102579.94
2023-02-02T21:21:35.904Z,102583.97
2023-02-02T21:23:38.316Z,102597.84
2023-02-02T21:25:40.531Z,102595.09
2023-02-02T21:27:42.668Z,102600.13
2023-02-02T21:29:44.753Z,102611.09
2023-02-02T21:31:47.060Z,102608.66
2023-02-02T21:33:50.814Z,102605.19
2023-02-02T21:35:52.906Z,102601.28
2023-02-02T21:37:58.117Z,102614.41
2023-02-02T21:40:00.301Z,102600.50
2023-02-02T21:42:08.573Z,102593.47
2023-02-02T21:44:16.515Z,102599.06
2023-02-02T21:46:21.454Z,102603.78
2023-02-02T21:48:32.990Z,102611.31
2023-02-02T21:50:37.867Z,102602.91
2023-02-02T21:52:40.096Z,102613.06
2023-02-02T21:54:42.774Z,102608.16
2023-02-02T21:56:44.864Z,102618.22
2023-02-02T21:58:47.931Z,102611.16
2023-02-02T22:00:50.816Z,102620.75
2023-02-02T22:02:54.182Z,102618.53
2023-02-02T22:05:00.398Z,102605.72
2023-02-02T22:07:14.009Z,102612.06
2023-02-02T22:09:20.618Z,102607.91
2023-02-02T22:11:30.072Z,102594.22
2023-02-02T22:13:35.687Z,102588.56
2023-02-02T22:15:39.040Z,102596.38
2023-02-02T22:17:43.805Z,102595.03
2023-02-02T22:19:46.003Z,102588.94
2023-02-02T22:21:48.107Z,102584.78
2023-02-02T22:23:50.266Z,102583.16
2023-02-02T22:25:55.231Z,102576.13
2023-02-02T22:28:00.605Z,102594.81
2023-02-02T22:30:21.277Z,102587.81
2023-02-02T22:32:23.346Z,102585.25
2023-02-02T22:34:25.361Z,102591.34
2023-02-02T22:36:27.413Z,102588.63
2023-02-02T22:38:29.420Z,102592.22
2023-02-02T22:40:31.949Z,102574.34
2023-02-02T22:42:33.986Z,102577.44
2023-02-02T22:44:36.083Z,102577.63
2023-02-02T22:46:38.128Z,102572.88
2023-02-02T22:48:40.133Z,102560.50
2023-02-02T22:50:42.442Z,102565.84
2023-02-02T22:52:44.914Z,102550.72
2023-02-02T22:54:47.130Z,102557.56
2023-02-02T22:56:49.209Z,102560.03
2023-02-02T22:58:51.208Z,102557.25
2023-02-02T23:00:53.275Z,102553.72
2023-02-02T23:02:56.204Z,102556.38
2023-02-02T23:04:58.313Z,102569.59
2023-02-02T23:07:00.338Z,102561.88
2023-02-02T23:09:02.440Z,102561.31
2023-02-02T23:11:04.402Z,102566.19
2023-02-02T23:13:06.748Z,102568.78
2023-02-02T23:15:10.176Z,102547.31
2023-02-02T23:17:12.246Z,102552.97
2023-02-02T23:19:14.240Z,102551.44
2023-02-02T23:21:17.334Z,102558.13
2023-02-02T23:23:19.332Z,102536.09
2023-02-02T23:25:22.206Z,102557.78
2023-02-02T23:27:24.415Z,102558.56
2023-02-02T23:29:26.626Z,102560.84
2023-02-02T23:31:28.764Z,102560.03
2023-02-02T23:33:31.238Z,102577.28
2023-02-02T23:35:33.193Z,102576.97
2023-02-02T23:37:34.971Z,102592.09
2023-02-02T23:39:41.439Z,102576.91
2023-02-02T23:41:43.324Z,102592.84
2023-02-02T23:43:45.124Z,102597.34
2023-02-02T23:45:47.015Z,102606.44